sensor_id;sensor_type;location;lat;lon;timestamp;pressure;altitude;pressure_sealevel;temperature;humidity
67987;BME280;54767;53.800;15.956;2023-07-13T00:01:10;99878.70;;;18.04;70.70
67987;BME280;54767;53.800;15.956;2023-07-13T00:03:40;99882.86;;;18.02;70.75
67987;BME280;54767;53.800;15.956;2023-07-13T00:06:09;99888.08;;;18.00;70.81
67987;BME280;54767;53.800;15.956;2023-07-13T00:08:38;99891.16;;;17.97;70.92
67987;BME280;54767;53.800;15.956;2023-07-13T00:11:07;99895.70;;;17.94;70.91
67987;BME280;54767;53.800;15.956;2023-07-13T00:13:35;99896.34;;;17.91;70.93
67987;BME280;54767;53.800;15.956;2023-07-13T00:16:07;99899.29;;;17.88;70.91
67987;BME280;54767;53.800;15.956;2023-07-13T00:18:36;99892.98;;;17.85;70.79
67987;BME280;54767;53.800;15.956;2023-07-13T00:21:05;99895.16;;;17.84;70.93
67987;BME280;54767;53.800;15.956;2023-07-13T00:23:39;99897.71;;;17.82;70.88
67987;BME280;54767;53.800;15.956;2023-07-13T00:26:10;99897.20;;;17.81;70.71
67987;BME280;54767;53.800;15.956;2023-07-13T00:28:39;99900.45;;;17.78;70.65
67987;BME280;54767;53.800;15.956;2023-07-13T00:31:11;99903.01;;;17.76;70.72
67987;BME280;54767;53.800;15.956;2023-07-13T00:33:41;99902.15;;;17.75;70.84
67987;BME280;54767;53.800;15.956;2023-07-13T00:36:10;99903.23;;;17.74;70.75
67987;BME280;54767;53.800;15.956;2023-07-13T00:38:39;99901.70;;;17.72;70.77
67987;BME280;54767;53.800;15.956;2023-07-13T00:41:08;99904.76;;;17.71;70.90
67987;BME280;54767;53.800;15.956;2023-07-13T00:43:36;99910.69;;;17.68;70.81
67987;BME280;54767;53.800;15.956;2023-07-13T00:46:12;99907.96;;;17.65;70.80
67987;BME280;54767;53.800;15.956;2023-07-13T00:48:43;99902.61;;;17.60;70.83
67987;BME280;54767;53.800;15.956;2023-07-13T00:51:13;99901.81;;;17.57;70.71
67987;BME280;54767;53.800;15.956;2023-07-13T00:53:44;99901.00;;;17.55;70.75
67987;BME280;54767;53.800;15.956;2023-07-13T00:56:13;99900.70;;;17.54;70.73
67987;BME280;54767;53.800;15.956;2023-07-13T00:58:42;99901.84;;;17.51;70.83
67987;BME280;54767;53.800;15.956;2023-07-13T01:01:11;99903.16;;;17.49;70.85
67987;BME280;54767;53.800;15.956;2023-07-13T01:03:41;99905.90;;;17.46;70.86
67987;BME280;54767;53.800;15.956;2023-07-13T01:06:10;99906.66;;;17.45;70.92
67987;BME280;54767;53.800;15.956;2023-07-13T01:08:39;99907.46;;;17.42;70.92
67987;BME280;54767;53.800;15.956;2023-07-13T01:11:08;99911.99;;;17.38;70.88
67987;BME280;54767;53.800;15.956;2023-07-13T01:13:36;99908.39;;;17.35;71.04
67987;BME280;54767;53.800;15.956;2023-07-13T01:16:14;99915.20;;;17.31;71.30
67987;BME280;54767;53.800;15.956;2023-07-13T01:18:43;99914.23;;;17.29;71.21
67987;BME280;54767;53.800;15.956;2023-07-13T01:21:11;99917.80;;;17.28;71.21
67987;BME280;54767;53.800;15.956;2023-07-13T01:23:40;99923.82;;;17.28;71.05
67987;BME280;54767;53.800;15.956;2023-07-13T01:26:08;99924.36;;;17.27;71.14
67987;BME280;54767;53.800;15.956;2023-07-13T01:28:37;99923.33;;;17.26;71.05
67987;BME280;54767;53.800;15.956;2023-07-13T01:31:05;99922.15;;;17.24;71.01
67987;BME280;54767;53.800;15.956;2023-07-13T01:33:36;99918.34;;;17.21;71.11
67987;BME280;54767;53.800;15.956;2023-07-13T01:36:06;99919.86;;;17.18;71.28
67987;BME280;54767;53.800;15.956;2023-07-13T01:38:36;99913.80;;;17.14;71.20
67987;BME280;54767;53.800;15.956;2023-07-13T01:41:05;99910.52;;;17.11;71.27
67987;BME280;54767;53.800;15.956;2023-07-13T01:43:33;99917.14;;;17.09;71.59
67987;BME280;54767;53.800;15.956;2023-07-13T01:46:01;99915.45;;;17.06;71.34
67987;BME280;54767;53.800;15.956;2023-07-13T01:48:50;99912.31;;;17.04;71.43
67987;BME280;54767;53.800;15.956;2023-07-13T01:51:20;99918.86;;;17.04;71.54
67987;BME280;54767;53.800;15.956;2023-07-13T01:53:49;99930.02;;;17.04;71.56
67987;BME280;54767;53.800;15.956;2023-07-13T01:56:18;99927.71;;;17.04;71.54
67987;BME280;54767;53.800;15.956;2023-07-13T01:58:47;99924.70;;;17.04;71.60
67987;BME280;54767;53.800;15.956;2023-07-13T02:01:15;99934.98;;;17.03;71.35
67987;BME280;54767;53.800;15.956;2023-07-13T02:03:44;99938.38;;;17.02;71.43
67987;BME280;54767;53.800;15.956;2023-07-13T02:06:12;99935.62;;;16.99;71.67
67987;BME280;54767;53.800;15.956;2023-07-13T02:08:41;99943.50;;;16.96;71.77
67987;BME280;54767;53.800;15.956;2023-07-13T02:11:11;99933.66;;;16.94;71.45
67987;BME280;54767;53.800;15.956;2023-07-13T02:13:39;99931.77;;;16.91;71.42
67987;BME280;54767;53.800;15.956;2023-07-13T02:16:07;99933.98;;;16.89;71.49
67987;BME280;54767;53.800;15.956;2023-07-13T02:18:36;99935.13;;;16.86;71.53
67987;BME280;54767;53.800;15.956;2023-07-13T02:21:05;99933.64;;;16.83;71.52
67987;BME280;54767;53.800;15.956;2023-07-13T02:23:34;99933.90;;;16.80;71.48
67987;BME280;54767;53.800;15.956;2023-07-13T02:26:03;99931.83;;;16.78;71.36
67987;BME280;54767;53.800;15.956;2023-07-13T02:28:32;99935.36;;;16.77;71.19
67987;BME280;54767;53.800;15.956;2023-07-13T02:31:12;99935.77;;;16.74;71.45
67987;BME280;54767;53.800;15.956;2023-07-13T02:33:41;99941.36;;;16.70;71.34
67987;BME280;54767;53.800;15.956;2023-07-13T02:36:11;99943.23;;;16.66;71.46
67987;BME280;54767;53.800;15.956;2023-07-13T02:38:40;99939.97;;;16.63;71.56
67987;BME280;54767;53.800;15.956;2023-07-13T02:41:09;99942.66;;;16.61;71.57
67987;BME280;54767;53.800;15.956;2023-07-13T02:43:38;99940.78;;;16.59;71.59
67987;BME280;54767;53.800;15.956;2023-07-13T02:46:06;99939.58;;;16.58;71.69
67987;BME280;54767;53.800;15.956;2023-07-13T02:48:38;99944.38;;;16.58;71.95
67987;BME280;54767;53.800;15.956;2023-07-13T02:51:07;99945.60;;;16.58;72.00
67987;BME280;54767;53.800;15.956;2023-07-13T02:53:36;99947.31;;;16.59;71.93
67987;BME280;54767;53.800;15.956;2023-07-13T02:56:05;99948.34;;;16.61;71.80
67987;BME280;54767;53.800;15.956;2023-07-13T02:58:34;99944.83;;;16.60;71.81
67987;BME280;54767;53.800;15.956;2023-07-13T03:01:09;99950.20;;;16.58;71.88
67987;BME280;54767;53.800;15.956;2023-07-13T03:03:38;99947.60;;;16.56;72.00
67987;BME280;54767;53.800;15.956;2023-07-13T03:06:07;99940.35;;;16.56;72.10
67987;BME280;54767;53.800;15.956;2023-07-13T03:08:37;99937.54;;;16.56;71.98
67987;BME280;54767;53.800;15.956;2023-07-13T03:11:08;99933.60;;;16.57;71.92
67987;BME280;54767;53.800;15.956;2023-07-13T03:13:41;99930.75;;;16.58;72.06
67987;BME280;54767;53.800;15.956;2023-07-13T03:16:10;99927.57;;;16.58;71.90
67987;BME280;54767;53.800;15.956;2023-07-13T03:18:42;99936.77;;;16.58;71.96
67987;BME280;54767;53.800;15.956;2023-07-13T03:21:11;99934.48;;;16.56;71.89
67987;BME280;54767;53.800;15.956;2023-07-13T03:23:40;99933.48;;;16.55;71.88
67987;BME280;54767;53.800;15.956;2023-07-13T03:26:17;99931.55;;;16.54;71.82
67987;BME280;54767;53.800;15.956;2023-07-13T03:28:46;99931.92;;;16.54;71.87
67987;BME280;54767;53.800;15.956;2023-07-13T03:31:18;99933.38;;;16.53;72.00
67987;BME280;54767;53.800;15.956;2023-07-13T03:33:47;99927.05;;;16.51;71.96
67987;BME280;54767;53.800;15.956;2023-07-13T03:36:19;99928.81;;;16.51;71.92
67987;BME280;54767;53.800;15.956;2023-07-13T03:38:49;99936.73;;;16.53;72.18
67987;BME280;54767;53.800;15.956;2023-07-13T03:41:18;99937.38;;;16.54;72.18
67987;BME280;54767;53.800;15.956;2023-07-13T03:43:47;99941.09;;;16.54;72.17
67987;BME280;54767;53.800;15.956;2023-07-13T03:46:18;99948.85;;;16.55;72.51
67987;BME280;54767;53.800;15.956;2023-07-13T03:48:47;99953.07;;;16.56;72.56
67987;BME280;54767;53.800;15.956;2023-07-13T03:51:16;99952.32;;;16.57;72.67
67987;BME280;54767;53.800;15.956;2023-07-13T03:53:46;99959.04;;;16.58;72.76
67987;BME280;54767;53.800;15.956;2023-07-13T03:56:16;99963.90;;;16.61;72.95
67987;BME280;54767;53.800;15.956;2023-07-13T03:58:47;99966.45;;;16.64;72.98
67987;BME280;54767;53.800;15.956;2023-07-13T04:01:18;99961.00;;;16.69;73.00
67987;BME280;54767;53.800;15.956;2023-07-13T04:03:47;99966.38;;;16.73;73.17
67987;BME280;54767;53.800;15.956;2023-07-13T04:06:22;99964.27;;;16.72;73.32
67987;BME280;54767;53.800;15.956;2023-07-13T04:08:54;99963.39;;;16.72;73.30
67987;BME280;54767;53.800;15.956;2023-07-13T04:11:27;99963.20;;;16.73;73.30
67987;BME280;54767;53.800;15.956;2023-07-13T04:13:57;99971.50;;;16.73;73.19
67987;BME280;54767;53.800;15.956;2023-07-13T04:16:25;99971.48;;;16.73;73.08
67987;BME280;54767;53.800;15.956;2023-07-13T04:18:55;99972.69;;;16.76;73.03
67987;BME280;54767;53.800;15.956;2023-07-13T04:21:30;99975.61;;;16.79;73.10
67987;BME280;54767;53.800;15.956;2023-07-13T04:23:58;99979.44;;;16.82;73.20
67987;BME280;54767;53.800;15.956;2023-07-13T04:26:27;99973.20;;;16.83;73.30
67987;BME280;54767;53.800;15.956;2023-07-13T04:28:57;99970.33;;;16.85;73.36
67987;BME280;54767;53.800;15.956;2023-07-13T04:31:25;99965.15;;;16.87;73.48
67987;BME280;54767;53.800;15.956;2023-07-13T04:33:55;99964.84;;;16.91;73.53
67987;BME280;54767;53.800;15.956;2023-07-13T04:36:24;99966.45;;;16.97;73.67
67987;BME280;54767;53.800;15.956;2023-07-13T04:38:55;99963.84;;;17.02;73.68
67987;BME280;54767;53.800;15.956;2023-07-13T04:41:23;99967.36;;;17.08;73.66
67987;BME280;54767;53.800;15.956;2023-07-13T04:43:51;99972.64;;;17.15;73.85
67987;BME280;54767;53.800;15.956;2023-07-13T04:46:23;99973.92;;;17.26;73.77
67987;BME280;54767;53.800;15.956;2023-07-13T04:48:52;99978.28;;;17.34;73.88
67987;BME280;54767;53.800;15.956;2023-07-13T04:51:21;99982.15;;;17.40;73.83
67987;BME280;54767;53.800;15.956;2023-07-13T04:53:50;99977.52;;;17.48;73.80
67987;BME280;54767;53.800;15.956;2023-07-13T04:56:26;99982.63;;;17.54;73.54
67987;BME280;54767;53.800;15.956;2023-07-13T04:58:54;99985.26;;;17.60;73.53
67987;BME280;54767;53.800;15.956;2023-07-13T05:01:22;99986.09;;;17.68;73.67
67987;BME280;54767;53.800;15.956;2023-07-13T05:03:51;99993.55;;;17.79;73.52
67987;BME280;54767;53.800;15.956;2023-07-13T05:06:20;99998.36;;;17.89;73.49
67987;BME280;54767;53.800;15.956;2023-07-13T05:08:49;99997.83;;;18.00;73.40
67987;BME280;54767;53.800;15.956;2023-07-13T05:11:18;99994.70;;;18.10;73.29
67987;BME280;54767;53.800;15.956;2023-07-13T05:13:46;100000.42;;;18.24;73.50
67987;BME280;54767;53.800;15.956;2023-07-13T05:16:14;100001.20;;;18.43;73.52
67987;BME280;54767;53.800;15.956;2023-07-13T05:18:43;100003.63;;;18.60;73.24
67987;BME280;54767;53.800;15.956;2023-07-13T05:21:11;100007.38;;;18.75;73.11
67987;BME280;54767;53.800;15.956;2023-07-13T05:23:40;100008.33;;;18.93;72.85
67987;BME280;54767;53.800;15.956;2023-07-13T05:26:10;100009.39;;;19.03;72.26
67987;BME280;54767;53.800;15.956;2023-07-13T05:28:39;100006.55;;;19.08;72.14
67987;BME280;54767;53.800;15.956;2023-07-13T05:31:09;100012.41;;;19.18;71.89
67987;BME280;54767;53.800;15.956;2023-07-13T05:33:39;100011.02;;;19.22;71.87
67987;BME280;54767;53.800;15.956;2023-07-13T05:36:07;100013.16;;;19.40;71.96
67987;BME280;54767;53.800;15.956;2023-07-13T05:38:36;100023.83;;;19.54;71.87
67987;BME280;54767;53.800;15.956;2023-07-13T05:41:04;100026.89;;;19.81;72.36
67987;BME280;54767;53.800;15.956;2023-07-13T05:43:33;100023.73;;;20.02;71.73
67987;BME280;54767;53.800;15.956;2023-07-13T05:46:02;100033.33;;;20.20;71.74
67987;BME280;54767;53.800;15.956;2023-07-13T05:48:31;100035.36;;;20.35;70.88
67987;BME280;54767;53.800;15.956;2023-07-13T05:50:59;100041.26;;;20.34;70.32
67987;BME280;54767;53.800;15.956;2023-07-13T05:53:28;100037.46;;;20.36;70.14
67987;BME280;54767;53.800;15.956;2023-07-13T05:55:57;100040.09;;;20.41;69.94
67987;BME280;54767;53.800;15.956;2023-07-13T05:58:30;100043.62;;;20.42;69.70
67987;BME280;54767;53.800;15.956;2023-07-13T06:01:00;100041.33;;;20.55;70.19
67987;BME280;54767;53.800;15.956;2023-07-13T06:03:30;100039.09;;;20.74;69.99
67987;BME280;54767;53.800;15.956;2023-07-13T06:05:59;100040.86;;;20.86;69.77
67987;BME280;54767;53.800;15.956;2023-07-13T06:08:31;100043.30;;;21.00;69.80
67987;BME280;54767;53.800;15.956;2023-07-13T06:11:19;100049.77;;;21.18;69.32
67987;BME280;54767;53.800;15.956;2023-07-13T06:13:47;100050.58;;;21.32;68.67
67987;BME280;54767;53.800;15.956;2023-07-13T06:16:17;100048.41;;;21.41;68.86
67987;BME280;54767;53.800;15.956;2023-07-13T06:18:46;100055.27;;;21.59;68.28
67987;BME280;54767;53.800;15.956;2023-07-13T06:21:20;100055.42;;;21.63;67.87
67987;BME280;54767;53.800;15.956;2023-07-13T06:23:50;100057.27;;;21.69;67.57
67987;BME280;54767;53.800;15.956;2023-07-13T06:26:20;100056.23;;;21.73;67.00
67987;BME280;54767;53.800;15.956;2023-07-13T06:28:48;100049.05;;;21.74;66.90
67987;BME280;54767;53.800;15.956;2023-07-13T06:31:17;100049.63;;;21.73;66.67
67987;BME280;54767;53.800;15.956;2023-07-13T06:33:45;100051.58;;;21.81;66.87
67987;BME280;54767;53.800;15.956;2023-07-13T06:36:14;100053.08;;;21.83;66.75
67987;BME280;54767;53.800;15.956;2023-07-13T06:38:42;100051.14;;;21.82;66.57
67987;BME280;54767;53.800;15.956;2023-07-13T06:41:11;100050.30;;;21.81;66.43
67987;BME280;54767;53.800;15.956;2023-07-13T06:43:40;100046.57;;;21.77;66.13
67987;BME280;54767;53.800;15.956;2023-07-13T06:46:09;100042.85;;;21.77;65.99
67987;BME280;54767;53.800;15.956;2023-07-13T06:48:38;100045.55;;;21.72;65.43
67987;BME280;54767;53.800;15.956;2023-07-13T06:51:06;100040.78;;;21.71;65.31
67987;BME280;54767;53.800;15.956;2023-07-13T06:53:35;100038.97;;;21.72;65.11
67987;BME280;54767;53.800;15.956;2023-07-13T06:56:03;100043.67;;;21.74;64.94
67987;BME280;54767;53.800;15.956;2023-07-13T06:58:34;100044.18;;;21.75;64.76
67987;BME280;54767;53.800;15.956;2023-07-13T07:01:03;100043.04;;;21.77;64.67
67987;BME280;54767;53.800;15.956;2023-07-13T07:03:35;100042.64;;;21.74;64.50
67987;BME280;54767;53.800;15.956;2023-07-13T07:06:17;100039.21;;;21.71;64.17
67987;BME280;54767;53.800;15.956;2023-07-13T07:08:46;100042.75;;;21.68;64.18
67987;BME280;54767;53.800;15.956;2023-07-13T07:11:17;100049.04;;;21.66;64.30
67987;BME280;54767;53.800;15.956;2023-07-13T07:13:46;100046.59;;;21.65;63.95
67987;BME280;54767;53.800;15.956;2023-07-13T07:16:15;100047.75;;;21.68;63.91
67987;BME280;54767;53.800;15.956;2023-07-13T07:18:44;100048.02;;;21.69;64.06
67987;BME280;54767;53.800;15.956;2023-07-13T07:21:14;100047.93;;;21.67;64.05
67987;BME280;54767;53.800;15.956;2023-07-13T07:23:43;100051.05;;;21.61;63.89
67987;BME280;54767;53.800;15.956;2023-07-13T07:26:11;100048.36;;;21.54;63.91
67987;BME280;54767;53.800;15.956;2023-07-13T07:28:40;100050.96;;;21.56;63.78
67987;BME280;54767;53.800;15.956;2023-07-13T07:31:13;100056.73;;;21.62;63.67
67987;BME280;54767;53.800;15.956;2023-07-13T07:33:45;100057.23;;;21.66;63.33
67987;BME280;54767;53.800;15.956;2023-07-13T07:36:13;100063.25;;;21.67;63.70
67987;BME280;54767;53.800;15.956;2023-07-13T07:38:45;100060.48;;;21.65;63.59
67987;BME280;54767;53.800;15.956;2023-07-13T07:41:13;100060.23;;;21.63;63.22
67987;BME280;54767;53.800;15.956;2023-07-13T07:43:44;100059.13;;;21.64;63.38
67987;BME280;54767;53.800;15.956;2023-07-13T07:46:13;100060.28;;;21.66;63.30
67987;BME280;54767;53.800;15.956;2023-07-13T07:48:42;100058.08;;;21.67;62.69
67987;BME280;54767;53.800;15.956;2023-07-13T07:51:10;100063.32;;;21.70;62.64
67987;BME280;54767;53.800;15.956;2023-07-13T07:53:38;100064.58;;;21.69;62.46
67987;BME280;54767;53.800;15.956;2023-07-13T07:56:07;100056.86;;;21.70;61.92
67987;BME280;54767;53.800;15.956;2023-07-13T07:58:38;100056.49;;;21.74;61.76
67987;BME280;54767;53.800;15.956;2023-07-13T08:01:09;100054.11;;;21.79;61.96
67987;BME280;54767;53.800;15.956;2023-07-13T08:03:41;100052.77;;;21.81;61.60
67987;BME280;54767;53.800;15.956;2023-07-13T08:06:12;100055.66;;;21.81;61.27
67987;BME280;54767;53.800;15.956;2023-07-13T08:09:01;100054.95;;;21.81;61.14
67987;BME280;54767;53.800;15.956;2023-07-13T08:11:32;100053.54;;;21.80;61.24
67987;BME280;54767;53.800;15.956;2023-07-13T08:14:03;100056.02;;;21.81;61.21
67987;BME280;54767;53.800;15.956;2023-07-13T08:16:32;100052.95;;;21.85;60.64
67987;BME280;54767;53.800;15.956;2023-07-13T08:19:01;100053.27;;;21.90;60.84
67987;BME280;54767;53.800;15.956;2023-07-13T08:21:30;100053.36;;;21.92;60.31
67987;BME280;54767;53.800;15.956;2023-07-13T08:23:58;100055.48;;;21.96;59.73
67987;BME280;54767;53.800;15.956;2023-07-13T08:26:26;100059.04;;;21.96;59.35
67987;BME280;54767;53.800;15.956;2023-07-13T08:28:55;100059.75;;;21.96;59.42
67987;BME280;54767;53.800;15.956;2023-07-13T08:31:23;100059.91;;;21.96;59.62
67987;BME280;54767;53.800;15.956;2023-07-13T08:33:52;100058.11;;;22.00;59.75
67987;BME280;54767;53.800;15.956;2023-07-13T08:36:20;100062.19;;;22.01;58.88
67987;BME280;54767;53.800;15.956;2023-07-13T08:38:48;100055.58;;;22.01;58.71
67987;BME280;54767;53.800;15.956;2023-07-13T08:41:18;100062.02;;;22.05;58.98
67987;BME280;54767;53.800;15.956;2023-07-13T08:43:49;100065.58;;;22.09;59.14
67987;BME280;54767;53.800;15.956;2023-07-13T08:46:40;100059.05;;;22.14;59.25
67987;BME280;54767;53.800;15.956;2023-07-13T08:49:16;100055.45;;;22.19;58.58
67987;BME280;54767;53.800;15.956;2023-07-13T08:54:27;100061.03;;;22.25;58.59
67987;BME280;54767;53.800;15.956;2023-07-13T08:57:01;100060.66;;;22.25;57.99
67987;BME280;54767;53.800;15.956;2023-07-13T08:59:32;100057.02;;;22.28;57.32
67987;BME280;54767;53.800;15.956;2023-07-13T09:04:40;100061.02;;;22.37;57.11
67987;BME280;54767;53.800;15.956;2023-07-13T09:15:41;100068.52;;;22.33;55.85
67987;BME280;54767;53.800;15.956;2023-07-13T09:18:20;100067.98;;;22.33;56.20
67987;BME280;54767;53.800;15.956;2023-07-13T09:21:09;100060.61;;;22.30;56.33
67987;BME280;54767;53.800;15.956;2023-07-13T09:23:39;100061.17;;;22.33;56.48
67987;BME280;54767;53.800;15.956;2023-07-13T09:28:44;100060.57;;;22.39;56.48
67987;BME280;54767;53.800;15.956;2023-07-13T09:31:33;100063.39;;;22.36;55.67
67987;BME280;54767;53.800;15.956;2023-07-13T09:34:11;100067.95;;;22.33;55.47
67987;BME280;54767;53.800;15.956;2023-07-13T09:36:40;100066.39;;;22.29;55.69
67987;BME280;54767;53.800;15.956;2023-07-13T09:39:25;100065.09;;;22.26;55.29
67987;BME280;54767;53.800;15.956;2023-07-13T09:42:17;100066.42;;;22.24;55.21
67987;BME280;54767;53.800;15.956;2023-07-13T09:44:57;100063.17;;;22.26;54.97
67987;BME280;54767;53.800;15.956;2023-07-13T09:47:29;100058.61;;;22.27;54.90
67987;BME280;54767;53.800;15.956;2023-07-13T09:50:04;100061.62;;;22.31;55.50
67987;BME280;54767;53.800;15.956;2023-07-13T09:52:46;100059.83;;;22.35;54.91
67987;BME280;54767;53.800;15.956;2023-07-13T09:55:37;100060.92;;;22.42;55.13
67987;BME280;54767;53.800;15.956;2023-07-13T10:00:54;100066.58;;;22.47;55.00
67987;BME280;54767;53.800;15.956;2023-07-13T10:03:27;100068.32;;;22.44;54.08
67987;BME280;54767;53.800;15.956;2023-07-13T10:06:09;100068.81;;;22.41;54.10
67987;BME280;54767;53.800;15.956;2023-07-13T10:08:41;100067.52;;;22.42;54.49
67987;BME280;54767;53.800;15.956;2023-07-13T10:11:22;100072.73;;;22.48;54.63
67987;BME280;54767;53.800;15.956;2023-07-13T10:13:54;100074.44;;;22.50;53.78
67987;BME280;54767;53.800;15.956;2023-07-13T10:16:28;100075.96;;;22.48;54.19
67987;BME280;54767;53.800;15.956;2023-07-13T10:21:47;100074.77;;;22.40;54.35
67987;BME280;54767;53.800;15.956;2023-07-13T10:24:41;100075.61;;;22.37;54.36
67987;BME280;54767;53.800;15.956;2023-07-13T10:29:52;100075.16;;;22.39;54.60
67987;BME280;54767;53.800;15.956;2023-07-13T10:32:24;100074.89;;;22.37;54.13
67987;BME280;54767;53.800;15.956;2023-07-13T10:34:53;100071.38;;;22.40;54.09
67987;BME280;54767;53.800;15.956;2023-07-13T10:37:27;100070.28;;;22.44;54.14
67987;BME280;54767;53.800;15.956;2023-07-13T10:39:59;100073.70;;;22.54;53.93
67987;BME280;54767;53.800;15.956;2023-07-13T10:42:40;100074.83;;;22.67;53.50
67987;BME280;54767;53.800;15.956;2023-07-13T10:45:20;100071.14;;;22.80;53.38
67987;BME280;54767;53.800;15.956;2023-07-13T10:47:52;100073.36;;;22.86;53.35
67987;BME280;54767;53.800;15.956;2023-07-13T10:50:26;100079.88;;;22.90;52.89
67987;BME280;54767;53.800;15.956;2023-07-13T10:53:02;100078.98;;;22.91;52.15
67987;BME280;54767;53.800;15.956;2023-07-13T10:58:28;100081.65;;;22.84;51.87
67987;BME280;54767;53.800;15.956;2023-07-13T11:03:30;100086.07;;;22.74;52.08
67987;BME280;54767;53.800;15.956;2023-07-13T11:06:12;100085.62;;;22.69;52.27
67987;BME280;54767;53.800;15.956;2023-07-13T11:11:36;100091.11;;;22.59;52.13
67987;BME280;54767;53.800;15.956;2023-07-13T11:14:31;100089.34;;;22.51;52.12
67987;BME280;54767;53.800;15.956;2023-07-13T11:23:30;100090.43;;;22.33;51.72
67987;BME280;54767;53.800;15.956;2023-07-13T11:26:59;100090.60;;;22.26;51.67
67987;BME280;54767;53.800;15.956;2023-07-13T11:32:30;100091.91;;;22.32;51.62
67987;BME280;54767;53.800;15.956;2023-07-13T11:35:17;100089.89;;;22.37;51.35
67987;BME280;54767;53.800;15.956;2023-07-13T11:38:03;100094.45;;;22.46;51.30
67987;BME280;54767;53.800;15.956;2023-07-13T11:40:48;100088.48;;;22.47;51.08
67987;BME280;54767;53.800;15.956;2023-07-13T11:43:34;100094.15;;;22.52;50.92
67987;BME280;54767;53.800;15.956;2023-07-13T11:46:32;100087.35;;;22.56;51.05
67987;BME280;54767;53.800;15.956;2023-07-13T11:53:08;100082.23;;;22.76;50.76
67987;BME280;54767;53.800;15.956;2023-07-13T11:55:40;100078.28;;;22.87;50.49
67987;BME280;54767;53.800;15.956;2023-07-13T11:58:23;100075.25;;;22.98;50.20
67987;BME280;54767;53.800;15.956;2023-07-13T12:00:52;100076.52;;;23.08;49.69
67987;BME280;54767;53.800;15.956;2023-07-13T12:03:25;100076.06;;;23.13;49.54
67987;BME280;54767;53.800;15.956;2023-07-13T12:06:21;100075.02;;;23.16;49.73
67987;BME280;54767;53.800;15.956;2023-07-13T12:08:52;100081.17;;;23.14;49.26
67987;BME280;54767;53.800;15.956;2023-07-13T12:11:21;100084.23;;;23.10;49.04
67987;BME280;54767;53.800;15.956;2023-07-13T12:13:50;100081.17;;;23.07;48.87
67987;BME280;54767;53.800;15.956;2023-07-13T12:16:34;100085.48;;;23.07;48.57
67987;BME280;54767;53.800;15.956;2023-07-13T12:19:03;100079.67;;;23.06;48.56
67987;BME280;54767;53.800;15.956;2023-07-13T12:21:36;100080.89;;;23.06;48.63
67987;BME280;54767;53.800;15.956;2023-07-13T12:24:16;100082.98;;;23.07;48.81
67987;BME280;54767;53.800;15.956;2023-07-13T12:26:51;100081.10;;;23.12;48.54
67987;BME280;54767;53.800;15.956;2023-07-13T12:29:20;100077.42;;;23.21;47.90
67987;BME280;54767;53.800;15.956;2023-07-13T12:31:49;100072.22;;;23.32;47.63
67987;BME280;54767;53.800;15.956;2023-07-13T12:34:22;100071.50;;;23.42;47.93
67987;BME280;54767;53.800;15.956;2023-07-13T12:37:00;100076.54;;;23.54;47.87
67987;BME280;54767;53.800;15.956;2023-07-13T12:39:37;100071.59;;;23.67;47.43
67987;BME280;54767;53.800;15.956;2023-07-13T12:45:20;100069.62;;;23.90;47.15
67987;BME280;54767;53.800;15.956;2023-07-13T12:47:53;100065.55;;;23.92;46.64
67987;BME280;54767;53.800;15.956;2023-07-13T12:50:23;100063.48;;;23.97;46.28
67987;BME280;54767;53.800;15.956;2023-07-13T12:53:05;100065.56;;;24.04;46.07
67987;BME280;54767;53.800;15.956;2023-07-13T12:55:52;100063.96;;;24.11;46.23
67987;BME280;54767;53.800;15.956;2023-07-13T12:58:40;100060.60;;;24.10;45.94
67987;BME280;54767;53.800;15.956;2023-07-13T13:01:14;100051.13;;;24.13;46.00
67987;BME280;54767;53.800;15.956;2023-07-13T13:03:51;100051.38;;;24.22;45.88
67987;BME280;54767;53.800;15.956;2023-07-13T13:06:27;100049.84;;;24.29;45.72
67987;BME280;54767;53.800;15.956;2023-07-13T13:08:58;100043.52;;;24.37;45.14
67987;BME280;54767;53.800;15.956;2023-07-13T13:11:29;100036.39;;;24.46;45.29
67987;BME280;54767;53.800;15.956;2023-07-13T13:13:58;100033.77;;;24.54;45.40
67987;BME280;54767;53.800;15.956;2023-07-13T13:16:30;100032.23;;;24.59;44.90
67987;BME280;54767;53.800;15.956;2023-07-13T13:21:46;100036.67;;;24.74;44.67
67987;BME280;54767;53.800;15.956;2023-07-13T13:24:19;100042.02;;;24.81;44.86
67987;BME280;54767;53.800;15.956;2023-07-13T13:26:50;100035.35;;;24.84;44.73
67987;BME280;54767;53.800;15.956;2023-07-13T13:29:22;100040.29;;;24.86;44.61
67987;BME280;54767;53.800;15.956;2023-07-13T13:31:54;100039.00;;;24.89;44.71
67987;BME280;54767;53.800;15.956;2023-07-13T13:34:25;100038.26;;;24.92;44.16
67987;BME280;54767;53.800;15.956;2023-07-13T13:36:54;100038.45;;;24.92;44.83
67987;BME280;54767;53.800;15.956;2023-07-13T13:39:35;100040.48;;;24.91;44.64
67987;BME280;54767;53.800;15.956;2023-07-13T13:42:05;100045.59;;;24.90;44.65
67987;BME280;54767;53.800;15.956;2023-07-13T13:44:33;100041.55;;;24.86;44.69
67987;BME280;54767;53.800;15.956;2023-07-13T13:47:02;100037.95;;;24.83;44.16
67987;BME280;54767;53.800;15.956;2023-07-13T13:49:31;100035.83;;;24.85;44.86
67987;BME280;54767;53.800;15.956;2023-07-13T13:51:59;100039.34;;;24.84;44.66
67987;BME280;54767;53.800;15.956;2023-07-13T13:54:28;100042.28;;;24.79;44.72
67987;BME280;54767;53.800;15.956;2023-07-13T13:56:56;100038.05;;;24.72;44.87
67987;BME280;54767;53.800;15.956;2023-07-13T13:59:27;100035.64;;;24.65;44.80